sensor_id;sensor_type;location;lat;lon;timestamp;P1;durP1;ratioP1;P2;durP2;ratioP2
17890;SDS011;9071;48.220;14.480;2023-01-29T00:00:02;21.57;;;12.03;;
17890;SDS011;9071;48.220;14.480;2023-01-29T00:05:10;23.30;;;12.50;;
17890;SDS011;9071;48.220;14.480;2023-01-29T00:10:12;20.00;;;10.60;;
17890;SDS011;9071;48.220;14.480;2023-01-29T00:15:15;19.53;;;10.83;;
17890;SDS011;9071;48.220;14.480;2023-01-29T00:20:19;20.20;;;9.90;;
17890;SDS011;9071;48.220;14.480;2023-01-29T00:25:21;16.50;;;8.83;;
17890;SDS011;9071;48.220;14.480;2023-01-29T00:30:23;17.00;;;8.80;;
17890;SDS011;9071;48.220;14.480;2023-01-29T00:35:27;16.47;;;8.90;;
17890;SDS011;9071;48.220;14.480;2023-01-29T00:40:29;14.80;;;8.60;;
17890;SDS011;9071;48.220;14.480;2023-01-29T00:45:54;18.50;;;9.87;;
17890;SDS011;9071;48.220;14.480;2023-01-29T00:50:58;15.10;;;9.03;;
17890;SDS011;9071;48.220;14.480;2023-01-29T00:56:00;17.17;;;9.00;;
17890;SDS011;9071;48.220;14.480;2023-01-29T01:01:02;18.47;;;9.43;;
17890;SDS011;9071;48.220;14.480;2023-01-29T01:06:06;16.87;;;8.97;;
17890;SDS011;9071;48.220;14.480;2023-01-29T01:11:10;17.97;;;10.17;;
17890;SDS011;9071;48.220;14.480;2023-01-29T01:16:12;18.70;;;9.70;;
17890;SDS011;9071;48.220;14.480;2023-01-29T01:21:19;16.60;;;9.07;;
17890;SDS011;9071;48.220;14.480;2023-01-29T01:26:21;17.17;;;9.53;;
17890;SDS011;9071;48.220;14.480;2023-01-29T01:31:23;19.13;;;9.67;;
17890;SDS011;9071;48.220;14.480;2023-01-29T01:36:26;20.03;;;10.80;;
17890;SDS011;9071;48.220;14.480;2023-01-29T01:41:28;19.13;;;9.93;;
17890;SDS011;9071;48.220;14.480;2023-01-29T01:46:32;19.40;;;10.20;;
17890;SDS011;9071;48.220;14.480;2023-01-29T01:51:40;21.07;;;11.53;;
17890;SDS011;9071;48.220;14.480;2023-01-29T01:56:45;19.50;;;10.50;;
17890;SDS011;9071;48.220;14.480;2023-01-29T02:01:53;21.90;;;11.23;;
17890;SDS011;9071;48.220;14.480;2023-01-29T02:06:57;23.37;;;11.73;;
17890;SDS011;9071;48.220;14.480;2023-01-29T02:12:19;24.20;;;12.10;;
17890;SDS011;9071;48.220;14.480;2023-01-29T02:17:22;21.73;;;11.80;;
17890;SDS011;9071;48.220;14.480;2023-01-29T02:28:11;27.83;;;12.83;;
17890;SDS011;9071;48.220;14.480;2023-01-29T02:33:27;26.37;;;13.10;;
17890;SDS011;9071;48.220;14.480;2023-01-29T02:38:37;28.53;;;14.00;;
17890;SDS011;9071;48.220;14.480;2023-01-29T02:43:47;22.90;;;11.67;;
17890;SDS011;9071;48.220;14.480;2023-01-29T02:48:54;21.53;;;11.20;;
17890;SDS011;9071;48.220;14.480;2023-01-29T02:54:00;22.73;;;12.47;;
17890;SDS011;9071;48.220;14.480;2023-01-29T02:59:07;24.97;;;12.33;;
17890;SDS011;9071;48.220;14.480;2023-01-29T03:04:13;24.97;;;11.63;;
17890;SDS011;9071;48.220;14.480;2023-01-29T03:09:22;22.93;;;12.40;;
17890;SDS011;9071;48.220;14.480;2023-01-29T03:14:31;22.60;;;11.20;;
17890;SDS011;9071;48.220;14.480;2023-01-29T03:20:01;25.47;;;13.77;;
17890;SDS011;9071;48.220;14.480;2023-01-29T03:25:06;23.43;;;12.53;;
17890;SDS011;9071;48.220;14.480;2023-01-29T03:30:29;23.40;;;11.87;;
17890;SDS011;9071;48.220;14.480;2023-01-29T03:35:52;22.33;;;11.10;;
17890;SDS011;9071;48.220;14.480;2023-01-29T03:41:01;24.63;;;12.67;;
17890;SDS011;9071;48.220;14.480;2023-01-29T03:46:08;24.10;;;11.90;;
17890;SDS011;9071;48.220;14.480;2023-01-29T03:51:20;24.60;;;12.10;;
17890;SDS011;9071;48.220;14.480;2023-01-29T03:56:32;24.33;;;12.53;;
17890;SDS011;9071;48.220;14.480;2023-01-29T04:01:41;24.07;;;11.47;;
17890;SDS011;9071;48.220;14.480;2023-01-29T04:06:48;24.97;;;11.97;;
17890;SDS011;9071;48.220;14.480;2023-01-29T04:11:54;21.23;;;11.23;;
17890;SDS011;9071;48.220;14.480;2023-01-29T04:17:05;24.43;;;12.13;;
17890;SDS011;9071;48.220;14.480;2023-01-29T04:22:12;22.27;;;11.93;;
17890;SDS011;9071;48.220;14.480;2023-01-29T04:27:22;23.10;;;12.27;;
17890;SDS011;9071;48.220;14.480;2023-01-29T04:32:33;24.13;;;12.60;;
17890;SDS011;9071;48.220;14.480;2023-01-29T04:37:48;24.60;;;12.90;;
17890;SDS011;9071;48.220;14.480;2023-01-29T04:42:58;27.43;;;13.00;;
17890;SDS011;9071;48.220;14.480;2023-01-29T04:48:09;26.90;;;14.10;;
17890;SDS011;9071;48.220;14.480;2023-01-29T04:53:22;30.50;;;13.80;;
17890;SDS011;9071;48.220;14.480;2023-01-29T04:58:30;27.27;;;13.97;;
17890;SDS011;9071;48.220;14.480;2023-01-29T05:03:37;23.23;;;12.63;;
17890;SDS011;9071;48.220;14.480;2023-01-29T05:08:42;26.00;;;13.73;;
17890;SDS011;9071;48.220;14.480;2023-01-29T05:13:46;30.03;;;14.53;;
17890;SDS011;9071;48.220;14.480;2023-01-29T05:18:50;28.93;;;14.00;;
17890;SDS011;9071;48.220;14.480;2023-01-29T05:24:05;27.50;;;12.23;;
17890;SDS011;9071;48.220;14.480;2023-01-29T05:29:09;25.53;;;12.63;;
17890;SDS011;9071;48.220;14.480;2023-01-29T05:34:12;23.70;;;12.17;;
17890;SDS011;9071;48.220;14.480;2023-01-29T05:39:14;27.10;;;13.40;;
17890;SDS011;9071;48.220;14.480;2023-01-29T05:44:17;26.10;;;13.03;;
17890;SDS011;9071;48.220;14.480;2023-01-29T05:49:21;29.83;;;12.73;;
17890;SDS011;9071;48.220;14.480;2023-01-29T05:54:23;27.57;;;13.87;;
17890;SDS011;9071;48.220;14.480;2023-01-29T05:59:25;27.63;;;13.57;;
17890;SDS011;9071;48.220;14.480;2023-01-29T06:04:28;25.73;;;12.77;;
17890;SDS011;9071;48.220;14.480;2023-01-29T06:09:30;25.23;;;13.47;;
17890;SDS011;9071;48.220;14.480;2023-01-29T06:14:32;25.57;;;13.53;;
17890;SDS011;9071;48.220;14.480;2023-01-29T06:19:36;27.63;;;14.30;;
17890;SDS011;9071;48.220;14.480;2023-01-29T06:24:38;30.00;;;14.33;;
17890;SDS011;9071;48.220;14.480;2023-01-29T06:29:40;27.87;;;14.53;;
17890;SDS011;9071;48.220;14.480;2023-01-29T06:34:43;29.87;;;14.80;;
17890;SDS011;9071;48.220;14.480;2023-01-29T06:39:46;26.13;;;12.90;;
17890;SDS011;9071;48.220;14.480;2023-01-29T06:44:48;28.30;;;13.87;;
17890;SDS011;9071;48.220;14.480;2023-01-29T06:49:51;25.10;;;13.07;;
17890;SDS011;9071;48.220;14.480;2023-01-29T06:54:53;26.10;;;13.70;;
17890;SDS011;9071;48.220;14.480;2023-01-29T06:59:56;29.50;;;14.57;;
17890;SDS011;9071;48.220;14.480;2023-01-29T07:05:00;26.13;;;13.37;;
17890;SDS011;9071;48.220;14.480;2023-01-29T07:10:02;30.67;;;14.50;;
17890;SDS011;9071;48.220;14.480;2023-01-29T07:15:05;28.77;;;13.47;;
17890;SDS011;9071;48.220;14.480;2023-01-29T07:20:10;29.30;;;14.13;;
17890;SDS011;9071;48.220;14.480;2023-01-29T07:25:12;30.60;;;14.10;;
17890;SDS011;9071;48.220;14.480;2023-01-29T07:30:14;31.63;;;14.37;;
17890;SDS011;9071;48.220;14.480;2023-01-29T07:35:18;26.90;;;14.80;;
17890;SDS011;9071;48.220;14.480;2023-01-29T07:40:20;31.17;;;16.03;;
17890;SDS011;9071;48.220;14.480;2023-01-29T07:45:22;27.20;;;13.67;;
17890;SDS011;9071;48.220;14.480;2023-01-29T07:50:26;28.10;;;14.57;;
17890;SDS011;9071;48.220;14.480;2023-01-29T07:55:28;27.97;;;13.77;;
17890;SDS011;9071;48.220;14.480;2023-01-29T08:00:30;25.37;;;12.47;;
17890;SDS011;9071;48.220;14.480;2023-01-29T08:05:34;22.70;;;12.00;;
17890;SDS011;9071;48.220;14.480;2023-01-29T08:10:37;21.63;;;11.17;;
17890;SDS011;9071;48.220;14.480;2023-01-29T08:15:41;22.20;;;11.87;;
17890;SDS011;9071;48.220;14.480;2023-01-29T08:20:46;18.83;;;10.93;;
17890;SDS011;9071;48.220;14.480;2023-01-29T08:25:49;21.30;;;11.13;;
17890;SDS011;9071;48.220;14.480;2023-01-29T08:30:51;21.57;;;12.13;;
17890;SDS011;9071;48.220;14.480;2023-01-29T08:35:55;19.40;;;10.23;;
17890;SDS011;9071;48.220;14.480;2023-01-29T08:40:57;18.53;;;10.80;;
17890;SDS011;9071;48.220;14.480;2023-01-29T08:45:59;18.03;;;10.47;;
17890;SDS011;9071;48.220;14.480;2023-01-29T08:51:02;19.50;;;11.33;;
17890;SDS011;9071;48.220;14.480;2023-01-29T08:56:05;32.83;;;15.73;;
17890;SDS011;9071;48.220;14.480;2023-01-29T09:01:08;19.53;;;10.80;;
17890;SDS011;9071;48.220;14.480;2023-01-29T09:06:13;23.77;;;13.80;;
17890;SDS011;9071;48.220;14.480;2023-01-29T09:11:15;19.00;;;11.40;;
17890;SDS011;9071;48.220;14.480;2023-01-29T09:16:17;20.03;;;10.63;;
17890;SDS011;9071;48.220;14.480;2023-01-29T09:21:21;15.03;;;9.20;;
17890;SDS011;9071;48.220;14.480;2023-01-29T09:26:23;19.10;;;11.07;;
17890;SDS011;9071;48.220;14.480;2023-01-29T09:31:25;17.13;;;9.90;;
17890;SDS011;9071;48.220;14.480;2023-01-29T09:36:28;16.10;;;9.07;;
17890;SDS011;9071;48.220;14.480;2023-01-29T09:41:34;14.87;;;8.83;;
17890;SDS011;9071;48.220;14.480;2023-01-29T09:46:48;14.10;;;8.43;;
17890;SDS011;9071;48.220;14.480;2023-01-29T09:51:55;15.03;;;8.77;;
17890;SDS011;9071;48.220;14.480;2023-01-29T09:57:01;14.27;;;8.67;;
17890;SDS011;9071;48.220;14.480;2023-01-29T10:02:05;15.43;;;8.47;;
17890;SDS011;9071;48.220;14.480;2023-01-29T10:07:15;12.60;;;8.33;;
17890;SDS011;9071;48.220;14.480;2023-01-29T10:12:33;14.33;;;8.17;;
17890;SDS011;9071;48.220;14.480;2023-01-29T10:17:58;14.17;;;8.37;;
17890;SDS011;9071;48.220;14.480;2023-01-29T10:23:17;12.00;;;7.83;;
17890;SDS011;9071;48.220;14.480;2023-01-29T10:28:25;12.80;;;7.27;;
17890;SDS011;9071;48.220;14.480;2023-01-29T10:33:31;10.97;;;7.33;;
17890;SDS011;9071;48.220;14.480;2023-01-29T10:38:43;9.53;;;6.37;;
17890;SDS011;9071;48.220;14.480;2023-01-29T10:43:50;12.33;;;8.07;;
17890;SDS011;9071;48.220;14.480;2023-01-29T10:49:05;10.27;;;6.70;;
17890;SDS011;9071;48.220;14.480;2023-01-29T10:54:20;10.47;;;6.50;;
17890;SDS011;9071;48.220;14.480;2023-01-29T10:59:35;22.03;;;12.00;;
17890;SDS011;9071;48.220;14.480;2023-01-29T11:04:48;17.23;;;9.90;;
17890;SDS011;9071;48.220;14.480;2023-01-29T11:09:53;11.90;;;6.97;;
17890;SDS011;9071;48.220;14.480;2023-01-29T11:15:02;7.83;;;4.93;;
17890;SDS011;9071;48.220;14.480;2023-01-29T11:20:11;7.97;;;5.40;;
17890;SDS011;9071;48.220;14.480;2023-01-29T11:25:28;8.90;;;5.80;;
17890;SDS011;9071;48.220;14.480;2023-01-29T11:30:32;9.77;;;5.13;;
17890;SDS011;9071;48.220;14.480;2023-01-29T11:35:37;8.47;;;5.50;;
17890;SDS011;9071;48.220;14.480;2023-01-29T11:40:41;8.80;;;5.30;;
17890;SDS011;9071;48.220;14.480;2023-01-29T11:45:44;7.93;;;4.80;;
17890;SDS011;9071;48.220;14.480;2023-01-29T11:50:50;8.73;;;5.27;;
17890;SDS011;9071;48.220;14.480;2023-01-29T11:55:54;10.17;;;5.80;;
17890;SDS011;9071;48.220;14.480;2023-01-29T12:00:56;15.80;;;9.23;;
17890;SDS011;9071;48.220;14.480;2023-01-29T12:06:01;13.50;;;9.50;;
17890;SDS011;9071;48.220;14.480;2023-01-29T12:11:09;13.10;;;9.07;;
17890;SDS011;9071;48.220;14.480;2023-01-29T12:16:18;11.13;;;6.70;;
17890;SDS011;9071;48.220;14.480;2023-01-29T12:21:27;12.40;;;7.60;;
17890;SDS011;9071;48.220;14.480;2023-01-29T12:26:36;9.77;;;5.37;;
17890;SDS011;9071;48.220;14.480;2023-01-29T12:31:43;16.40;;;9.10;;
17890;SDS011;9071;48.220;14.480;2023-01-29T12:36:51;8.57;;;6.03;;
17890;SDS011;9071;48.220;14.480;2023-01-29T12:42:01;7.30;;;5.07;;
17890;SDS011;9071;48.220;14.480;2023-01-29T12:47:11;8.77;;;5.27;;
17890;SDS011;9071;48.220;14.480;2023-01-29T12:52:19;8.03;;;5.27;;
17890;SDS011;9071;48.220;14.480;2023-01-29T12:57:36;7.13;;;5.07;;
17890;SDS011;9071;48.220;14.480;2023-01-29T13:02:44;8.53;;;5.53;;
17890;SDS011;9071;48.220;14.480;2023-01-29T13:07:56;7.90;;;5.43;;
17890;SDS011;9071;48.220;14.480;2023-01-29T13:13:10;8.00;;;5.13;;
17890;SDS011;9071;48.220;14.480;2023-01-29T13:18:20;7.90;;;5.50;;
17890;SDS011;9071;48.220;14.480;2023-01-29T13:23:33;8.30;;;6.13;;
17890;SDS011;9071;48.220;14.480;2023-01-29T13:28:39;10.30;;;7.60;;
17890;SDS011;9071;48.220;14.480;2023-01-29T13:33:50;61.93;;;35.50;;
17890;SDS011;9071;48.220;14.480;2023-01-29T13:38:58;15.77;;;7.30;;
17890;SDS011;9071;48.220;14.480;2023-01-29T13:44:05;11.47;;;6.67;;
17890;SDS011;9071;48.220;14.480;2023-01-29T13:49:26;12.77;;;8.90;;
17890;SDS011;9071;48.220;14.480;2023-01-29T13:54:31;11.83;;;7.10;;
17890;SDS011;9071;48.220;14.480;2023-01-29T13:59:50;9.57;;;6.47;;
17890;SDS011;9071;48.220;14.480;2023-01-29T14:10:38;8.80;;;5.77;;
17890;SDS011;9071;48.220;14.480;2023-01-29T14:15:43;10.23;;;5.93;;
17890;SDS011;9071;48.220;14.480;2023-01-29T14:20:49;13.03;;;7.97;;
17890;SDS011;9071;48.220;14.480;2023-01-29T14:26:00;15.27;;;9.93;;
17890;SDS011;9071;48.220;14.480;2023-01-29T14:31:06;154.97;;;64.80;;
17890;SDS011;9071;48.220;14.480;2023-01-29T14:36:09;444.27;;;165.30;;
17890;SDS011;9071;48.220;14.480;2023-01-29T14:41:24;406.90;;;134.27;;
17890;SDS011;9071;48.220;14.480;2023-01-29T14:46:41;327.63;;;110.97;;
17890;SDS011;9071;48.220;14.480;2023-01-29T14:51:44;83.37;;;33.90;;
17890;SDS011;9071;48.220;14.480;2023-01-29T14:56:48;144.83;;;51.47;;
17890;SDS011;9071;48.220;14.480;2023-01-29T15:01:59;79.63;;;36.60;;
17890;SDS011;9071;48.220;14.480;2023-01-29T15:07:06;70.47;;;33.90;;
17890;SDS011;9071;48.220;14.480;2023-01-29T15:12:18;33.80;;;16.33;;
17890;SDS011;9071;48.220;14.480;2023-01-29T15:17:28;57.33;;;28.67;;
17890;SDS011;9071;48.220;14.480;2023-01-29T15:22:40;18.10;;;9.10;;
17890;SDS011;9071;48.220;14.480;2023-01-29T15:27:43;16.10;;;9.13;;
17890;SDS011;9071;48.220;14.480;2023-01-29T15:32:47;54.03;;;27.43;;
17890;SDS011;9071;48.220;14.480;2023-01-29T15:37:57;19.23;;;10.87;;
17890;SDS011;9071;48.220;14.480;2023-01-29T15:43:00;27.40;;;17.10;;
17890;SDS011;9071;48.220;14.480;2023-01-29T15:48:04;18.77;;;10.77;;
17890;SDS011;9071;48.220;14.480;2023-01-29T15:53:08;21.23;;;11.13;;
17890;SDS011;9071;48.220;14.480;2023-01-29T15:58:16;21.23;;;11.20;;
17890;SDS011;9071;48.220;14.480;2023-01-29T16:03:22;111.13;;;57.53;;
17890;SDS011;9071;48.220;14.480;2023-01-29T16:08:27;13.53;;;8.73;;
17890;SDS011;9071;48.220;14.480;2023-01-29T16:13:29;49.23;;;26.83;;
17890;SDS011;9071;48.220;14.480;2023-01-29T16:18:35;53.00;;;30.20;;
17890;SDS011;9071;48.220;14.480;2023-01-29T16:23:40;24.90;;;16.40;;
17890;SDS011;9071;48.220;14.480;2023-01-29T16:28:44;16.33;;;10.30;;
17890;SDS011;9071;48.220;14.480;2023-01-29T16:33:49;17.53;;;11.67;;
17890;SDS011;9071;48.220;14.480;2023-01-29T16:38:52;15.37;;;9.70;;
17890;SDS011;9071;48.220;14.480;2023-01-29T16:43:59;13.83;;;8.20;;
17890;SDS011;9071;48.220;14.480;2023-01-29T16:49:12;36.53;;;20.70;;
17890;SDS011;9071;48.220;14.480;2023-01-29T16:54:47;16.93;;;11.10;;
17890;SDS011;9071;48.220;14.480;2023-01-29T16:59:51;19.03;;;9.73;;
17890;SDS011;9071;48.220;14.480;2023-01-29T17:04:57;17.77;;;8.70;;
17890;SDS011;9071;48.220;14.480;2023-01-29T17:10:02;21.20;;;11.97;;
17890;SDS011;9071;48.220;14.480;2023-01-29T17:15:26;14.93;;;9.50;;
17890;SDS011;9071;48.220;14.480;2023-01-29T17:20:35;16.37;;;9.67;;
17890;SDS011;9071;48.220;14.480;2023-01-29T17:25:37;21.90;;;12.33;;
17890;SDS011;9071;48.220;14.480;2023-01-29T17:30:39;17.80;;;10.00;;
17890;SDS011;9071;48.220;14.480;2023-01-29T17:35:43;16.60;;;11.03;;
17890;SDS011;9071;48.220;14.480;2023-01-29T17:40:46;18.93;;;11.37;;
17890;SDS011;9071;48.220;14.480;2023-01-29T17:45:51;19.77;;;12.13;;
17890;SDS011;9071;48.220;14.480;2023-01-29T17:50:55;22.40;;;14.57;;
17890;SDS011;9071;48.220;14.480;2023-01-29T17:55:59;21.43;;;12.73;;
17890;SDS011;9071;48.220;14.480;2023-01-29T18:01:01;18.33;;;11.47;;
17890;SDS011;9071;48.220;14.480;2023-01-29T18:06:06;20.27;;;12.07;;
17890;SDS011;9071;48.220;14.480;2023-01-29T18:11:09;18.23;;;11.73;;
17890;SDS011;9071;48.220;14.480;2023-01-29T18:16:12;19.73;;;12.80;;
17890;SDS011;9071;48.220;14.480;2023-01-29T18:21:16;16.77;;;10.63;;
17890;SDS011;9071;48.220;14.480;2023-01-29T18:26:19;16.50;;;9.57;;
17890;SDS011;9071;48.220;14.480;2023-01-29T18:31:21;16.00;;;9.93;;
17890;SDS011;9071;48.220;14.480;2023-01-29T18:36:25;17.77;;;11.20;;
17890;SDS011;9071;48.220;14.480;2023-01-29T18:41:27;145.87;;;62.10;;
17890;SDS011;9071;48.220;14.480;2023-01-29T18:46:29;27.63;;;16.27;;
17890;SDS011;9071;48.220;14.480;2023-01-29T18:51:33;43.80;;;23.40;;
17890;SDS011;9071;48.220;14.480;2023-01-29T18:56:35;26.97;;;15.40;;
17890;SDS011;9071;48.220;14.480;2023-01-29T19:01:37;21.83;;;12.80;;
17890;SDS011;9071;48.220;14.480;2023-01-29T19:06:40;19.43;;;12.20;;
17890;SDS011;9071;48.220;14.480;2023-01-29T19:11:42;21.97;;;13.33;;
17890;SDS011;9071;48.220;14.480;2023-01-29T19:16:44;22.10;;;13.30;;
17890;SDS011;9071;48.220;14.480;2023-01-29T19:21:48;26.17;;;13.87;;
17890;SDS011;9071;48.220;14.480;2023-01-29T19:26:52;21.03;;;13.67;;
17890;SDS011;9071;48.220;14.480;2023-01-29T19:31:54;21.73;;;12.80;;
17890;SDS011;9071;48.220;14.480;2023-01-29T19:36:58;26.13;;;14.43;;
17890;SDS011;9071;48.220;14.480;2023-01-29T19:42:00;24.87;;;15.87;;
17890;SDS011;9071;48.220;14.480;2023-01-29T19:47:02;25.00;;;13.70;;
17890;SDS011;9071;48.220;14.480;2023-01-29T19:52:05;29.00;;;16.13;;
17890;SDS011;9071;48.220;14.480;2023-01-29T19:57:13;29.97;;;18.27;;
17890;SDS011;9071;48.220;14.480;2023-01-29T20:02:15;24.03;;;15.47;;
17890;SDS011;9071;48.220;14.480;2023-01-29T20:07:19;28.90;;;18.00;;
17890;SDS011;9071;48.220;14.480;2023-01-29T20:12:22;27.23;;;15.63;;
17890;SDS011;9071;48.220;14.480;2023-01-29T20:17:26;24.50;;;14.37;;
17890;SDS011;9071;48.220;14.480;2023-01-29T20:22:29;23.53;;;13.50;;
17890;SDS011;9071;48.220;14.480;2023-01-29T20:27:31;22.70;;;12.57;;
17890;SDS011;9071;48.220;14.480;2023-01-29T20:32:33;24.83;;;13.93;;
17890;SDS011;9071;48.220;14.480;2023-01-29T20:37:37;25.23;;;14.10;;
17890;SDS011;9071;48.220;14.480;2023-01-29T20:42:39;26.17;;;14.40;;
17890;SDS011;9071;48.220;14.480;2023-01-29T20:47:41;25.67;;;13.77;;
17890;SDS011;9071;48.220;14.480;2023-01-29T20:52:45;24.70;;;13.10;;
17890;SDS011;9071;48.220;14.480;2023-01-29T20:57:47;28.50;;;14.60;;
17890;SDS011;9071;48.220;14.480;2023-01-29T21:02:49;22.93;;;13.53;;
17890;SDS011;9071;48.220;14.480;2023-01-29T21:07:53;27.17;;;13.70;;
17890;SDS011;9071;48.220;14.480;2023-01-29T21:12:55;22.87;;;13.77;;
17890;SDS011;9071;48.220;14.480;2023-01-29T21:17:57;24.13;;;12.53;;
17890;SDS011;9071;48.220;14.480;2023-01-29T21:23:04;25.80;;;13.93;;
17890;SDS011;9071;48.220;14.480;2023-01-29T21:28:06;25.27;;;13.60;;
17890;SDS011;9071;48.220;14.480;2023-01-29T21:33:09;24.23;;;13.73;;
17890;SDS011;9071;48.220;14.480;2023-01-29T21:38:12;25.97;;;13.63;;
17890;SDS011;9071;48.220;14.480;2023-01-29T21:43:14;26.13;;;14.43;;
17890;SDS011;9071;48.220;14.480;2023-01-29T21:48:16;27.13;;;15.50;;
17890;SDS011;9071;48.220;14.480;2023-01-29T21:53:19;26.30;;;14.20;;
17890;SDS011;9071;48.220;14.480;2023-01-29T21:58:21;25.23;;;13.47;;
17890;SDS011;9071;48.220;14.480;2023-01-29T22:03:24;24.60;;;13.47;;
17890;SDS011;9071;48.220;14.480;2023-01-29T22:08:27;28.93;;;14.87;;
17890;SDS011;9071;48.220;14.480;2023-01-29T22:13:29;28.47;;;14.43;;
17890;SDS011;9071;48.220;14.480;2023-01-29T22:18:31;28.40;;;14.40;;
17890;SDS011;9071;48.220;14.480;2023-01-29T22:23:35;29.43;;;14.07;;
17890;SDS011;9071;48.220;14.480;2023-01-29T22:28:37;26.50;;;13.97;;
17890;SDS011;9071;48.220;14.480;2023-01-29T22:33:39;27.57;;;14.70;;
17890;SDS011;9071;48.220;14.480;2023-01-29T22:38:42;27.77;;;14.37;;
17890;SDS011;9071;48.220;14.480;2023-01-29T22:43:45;30.27;;;14.83;;
17890;SDS011;9071;48.220;14.480;2023-01-29T22:48:47;28.57;;;14.63;;
17890;SDS011;9071;48.220;14.480;2023-01-29T22:53:52;25.93;;;14.53;;
17890;SDS011;9071;48.220;14.480;2023-01-29T22:58:56;29.03;;;14.43;;
17890;SDS011;9071;48.220;14.480;2023-01-29T23:03:59;29.33;;;15.40;;
17890;SDS011;9071;48.220;14.480;2023-01-29T23:09:02;30.73;;;15.53;;
17890;SDS011;9071;48.220;14.480;2023-01-29T23:14:04;28.73;;;14.43;;
17890;SDS011;9071;48.220;14.480;2023-01-29T23:19:06;26.47;;;14.10;;
17890;SDS011;9071;48.220;14.480;2023-01-29T23:24:11;26.50;;;14.33;;
17890;SDS011;9071;48.220;14.480;2023-01-29T23:29:14;28.77;;;15.70;;
17890;SDS011;9071;48.220;14.480;2023-01-29T23:34:16;28.00;;;14.83;;
17890;SDS011;9071;48.220;14.480;2023-01-29T23:39:19;25.20;;;14.53;;
17890;SDS011;9071;48.220;14.480;2023-01-29T23:44:22;28.07;;;14.87;;
17890;SDS011;9071;48.220;14.480;2023-01-29T23:49:24;28.17;;;14.63;;
17890;SDS011;9071;48.220;14.480;2023-01-29T23:54:27;25.33;;;14.23;;
17890;SDS011;9071;48.220;14.480;2023-01-29T23:59:30;28.47;;;14.07;;
